Pagina principale
METAR-TAF:

METAR-TAF

Aeroporti :

Fourchambault

Nevers, Francia

latitudine: 47-00N, longitudine: 003-06E, altezza: 180 m

Osservazione

Il bollettino è stato emesso 38 minuti fa, alle 11:30 UTC
Vento 4 kt da est/sud-est, variando fra nord-est e sud/sud-ovest
Temperature 34°C
Umidità 30%
Pressione 1020 hPa
Visibilità 10 km o più
nessuna nube inferiore a 1500 m e nessun cumulonembo

METAR: LFQG 261130Z AUTO 11004KT 050V200 CAVOK 34/14 Q1020

Ora: 14:08 (12:08 UTC)


TAF: mancante

Osservazioni e previsioni meteorologiche di più di 4000 aeroporti (messaggi METAR e TAF).

Le stazioni disponibili sono rappresentate dai dischi gialli e rossi sulla carta.

Puntare il mouse per vedere il nome della stazione.

Clicca sopra per visualizzare le osservazioni e previsioni meteorologiche.

Per cambiare la mappa : fare clic sui pulsanti verdi con una croce nera per ingrandire, il pulsante verde con un trattino per diminuire, o sulla freccia verde per le mappe adiacenti.


METAR-TAF: